createdAt,value
2022-11-27T00:00:13.119Z,9.87
2022-11-27T00:02:42.215Z,9.87
2022-11-27T00:05:10.583Z,9.87
2022-11-27T00:07:38.344Z,9.87
2022-11-27T00:10:07.482Z,9.85
2022-11-27T00:12:35.694Z,9.85
2022-11-27T00:15:05.078Z,9.84
2022-11-27T00:17:32.788Z,9.83
2022-11-27T00:20:01.874Z,9.81
2022-11-27T00:22:29.601Z,9.82
2022-11-27T00:24:57.296Z,9.82
2022-11-27T00:27:24.990Z,9.81
2022-11-27T00:29:52.740Z,9.78
2022-11-27T00:32:20.401Z,9.79
2022-11-27T00:34:48.140Z,9.77
2022-11-27T00:37:17.163Z,9.78
2022-11-27T00:39:44.857Z,9.77
2022-11-27T00:42:12.524Z,9.76
2022-11-27T00:44:40.485Z,9.73
2022-11-27T00:47:08.354Z,9.74
2022-11-27T00:49:36.104Z,9.75
2022-11-27T00:52:03.819Z,9.73
2022-11-27T00:54:33.006Z,9.73
2022-11-27T00:57:00.798Z,9.72
2022-11-27T00:59:28.530Z,9.69
2022-11-27T01:01:56.282Z,9.67
2022-11-27T01:04:24.026Z,9.67
2022-11-27T01:06:51.745Z,9.64
2022-11-27T01:09:19.884Z,9.62
2022-11-27T01:11:48.860Z,9.61
2022-11-27T01:14:18.570Z,9.58
2022-11-27T01:16:46.907Z,9.59
2022-11-27T01:19:15.594Z,9.57
2022-11-27T01:21:43.334Z,9.58
2022-11-27T01:24:13.192Z,9.57
2022-11-27T01:26:41.194Z,9.57
2022-11-27T01:29:10.659Z,9.57
2022-11-27T01:31:38.690Z,9.56
2022-11-27T01:34:08.183Z,9.56
2022-11-27T01:36:36.933Z,9.54
2022-11-27T01:39:05.740Z,9.53
2022-11-27T01:41:35.500Z,9.51
2022-11-27T01:44:05.580Z,9.50
2022-11-27T01:46:38.304Z,9.51
2022-11-27T01:49:24.893Z,9.51
2022-11-27T01:51:57.220Z,9.49
2022-11-27T01:54:28.146Z,9.48
2022-11-27T01:56:59.094Z,9.49
2022-11-27T01:59:27.068Z,9.49
2022-11-27T02:01:56.258Z,9.46
2022-11-27T02:04:24.037Z,9.46
2022-11-27T02:06:51.901Z,9.45
2022-11-27T02:09:19.588Z,9.44
2022-11-27T02:11:54.982Z,9.44
2022-11-27T02:14:27.976Z,9.45
2022-11-27T02:17:05.530Z,9.44
2022-11-27T02:19:45.194Z,9.42
2022-11-27T02:22:29.894Z,9.40
2022-11-27T02:25:08.367Z,9.39
2022-11-27T02:27:58.402Z,9.39
2022-11-27T02:30:28.916Z,9.40
2022-11-27T02:32:59.373Z,9.38
2022-11-27T02:35:32.810Z,9.38
2022-11-27T02:38:03.989Z,9.36
2022-11-27T02:40:36.042Z,9.35
2022-11-27T02:43:08.890Z,9.34
2022-11-27T02:45:41.630Z,9.34
2022-11-27T02:48:11.221Z,9.32
2022-11-27T02:50:42.603Z,9.30
2022-11-27T02:53:14.413Z,9.33
2022-11-27T02:55:46.001Z,9.32
2022-11-27T02:58:16.948Z,9.29
2022-11-27T03:00:48.314Z,9.29
2022-11-27T03:03:19.739Z,9.28
2022-11-27T03:05:51.781Z,9.28
2022-11-27T03:08:26.637Z,9.27
2022-11-27T03:11:02.608Z,9.27
2022-11-27T03:13:33.700Z,9.24
2022-11-27T03:16:11.245Z,9.27
2022-11-27T03:18:43.403Z,9.27
2022-11-27T03:21:18.889Z,9.26
2022-11-27T03:23:46.711Z,9.25
2022-11-27T03:26:14.385Z,9.26
2022-11-27T03:28:45.252Z,9.24
2022-11-27T03:31:14.743Z,9.23
2022-11-27T03:33:42.840Z,9.25
2022-11-27T03:36:14.207Z,9.22
2022-11-27T03:38:42.543Z,9.11
2022-11-27T03:41:19.616Z,9.21
2022-11-27T03:43:54.391Z,9.20
2022-11-27T03:46:32.918Z,9.19
2022-11-27T03:49:09.500Z,9.20
2022-11-27T03:51:43.523Z,9.20
2022-11-27T03:54:18.333Z,9.19
2022-11-27T03:56:54.237Z,9.19
2022-11-27T03:59:26.828Z,9.17
2022-11-27T04:01:58.445Z,9.18
2022-11-27T04:04:26.499Z,9.19
2022-11-27T04:06:54.235Z,9.18
2022-11-27T04:09:21.940Z,9.18
2022-11-27T04:11:49.617Z,9.18
2022-11-27T04:14:17.288Z,9.19
2022-11-27T04:16:44.958Z,9.22
2022-11-27T04:19:14.033Z,9.20
2022-11-27T04:21:41.723Z,9.20
2022-11-27T04:24:09.504Z,9.20
2022-11-27T04:26:37.159Z,9.20
2022-11-27T04:29:04.893Z,9.18
2022-11-27T04:31:32.660Z,9.20
2022-11-27T04:34:00.379Z,9.18
2022-11-27T04:36:29.412Z,9.17
2022-11-27T04:38:57.100Z,9.18
2022-11-27T04:41:24.750Z,9.18
2022-11-27T04:43:52.474Z,9.18
2022-11-27T04:46:20.448Z,9.18
2022-11-27T04:48:48.206Z,9.16
2022-11-27T04:51:15.853Z,9.16
2022-11-27T04:53:44.868Z,9.16
2022-11-27T04:56:12.562Z,9.14
2022-11-27T04:58:40.255Z,9.15
2022-11-27T05:01:09.307Z,9.13
2022-11-27T05:03:37.191Z,9.13
2022-11-27T05:06:05.229Z,9.12
2022-11-27T05:08:33.581Z,9.10
2022-11-27T05:11:05.466Z,9.10
2022-11-27T05:13:33.181Z,9.10
2022-11-27T05:16:00.995Z,9.10
2022-11-27T05:18:28.987Z,9.10
2022-11-27T05:20:58.294Z,9.09
2022-11-27T05:23:26.457Z,9.10
2022-11-27T05:25:54.609Z,9.07
2022-11-27T05:28:26.919Z,9.10
2022-11-27T05:30:55.167Z,9.10
2022-11-27T05:33:22.891Z,9.09
2022-11-27T05:35:50.556Z,9.09
2022-11-27T05:38:18.234Z,9.09
2022-11-27T05:40:45.869Z,9.08
2022-11-27T05:43:13.509Z,9.07
2022-11-27T05:45:42.522Z,9.07
2022-11-27T05:48:10.237Z,9.06
2022-11-27T05:50:37.976Z,9.07
2022-11-27T05:53:05.763Z,9.08
2022-11-27T05:55:33.524Z,9.07
2022-11-27T05:58:01.215Z,9.05
2022-11-27T06:00:28.998Z,9.05
2022-11-27T06:02:58.117Z,9.04
2022-11-27T06:05:25.856Z,9.05
2022-11-27T06:07:53.564Z,9.07
2022-11-27T06:10:21.286Z,9.07
2022-11-27T06:12:48.925Z,9.11
2022-11-27T06:15:16.653Z,9.23
2022-11-27T06:17:44.306Z,9.40
2022-11-27T06:20:13.767Z,9.53
2022-11-27T06:22:41.430Z,9.67
2022-11-27T06:25:10.007Z,9.84
2022-11-27T06:27:38.030Z,9.93
2022-11-27T06:30:07.140Z,9.92
2022-11-27T06:32:34.853Z,9.88
2022-11-27T06:35:02.650Z,9.80
2022-11-27T06:37:31.957Z,9.74
2022-11-27T06:39:59.810Z,9.66
2022-11-27T06:42:29.921Z,9.60
2022-11-27T06:44:57.650Z,9.55
2022-11-27T06:47:25.359Z,9.50
2022-11-27T06:49:53.064Z,9.48
2022-11-27T06:52:20.825Z,9.43
2022-11-27T06:54:49.885Z,9.41
2022-11-27T06:57:17.591Z,9.39
2022-11-27T06:59:45.258Z,9.37
2022-11-27T07:02:15.109Z,9.33
2022-11-27T07:04:43.013Z,9.30
2022-11-27T07:07:10.854Z,9.29
2022-11-27T07:09:38.505Z,9.28
2022-11-27T07:12:08.244Z,9.27
2022-11-27T07:14:35.946Z,9.26
2022-11-27T07:17:03.671Z,9.24
2022-11-27T07:19:31.328Z,9.21
2022-11-27T07:21:59.058Z,9.20
2022-11-27T07:24:26.761Z,9.20
2022-11-27T07:26:54.500Z,9.17
2022-11-27T07:29:23.576Z,9.17
2022-11-27T07:31:51.825Z,9.17
2022-11-27T07:34:21.648Z,9.27
2022-11-27T07:36:49.796Z,9.44
2022-11-27T07:39:28.744Z,9.59
2022-11-27T07:42:36.399Z,9.76
2022-11-27T07:44:54.560Z,9.92
2022-11-27T07:47:22.270Z,9.98
2022-11-27T07:50:00.365Z,9.93
2022-11-27T07:52:28.781Z,9.86
2022-11-27T07:54:56.436Z,9.76
2022-11-27T07:57:24.154Z,9.67
2022-11-27T07:59:51.875Z,9.59
2022-11-27T08:02:21.109Z,9.52
2022-11-27T08:04:49.010Z,9.48
2022-11-27T08:07:16.812Z,9.38
2022-11-27T08:09:44.522Z,9.42
2022-11-27T08:12:12.201Z,9.39
2022-11-27T08:14:40.111Z,9.38
2022-11-27T08:17:07.962Z,9.35
2022-11-27T08:19:36.968Z,9.35
2022-11-27T08:22:04.789Z,9.29
2022-11-27T08:24:32.625Z,9.27
2022-11-27T08:27:00.364Z,9.26
2022-11-27T08:29:33.720Z,9.20
2022-11-27T08:32:01.877Z,9.25
2022-11-27T08:34:29.584Z,9.24
2022-11-27T08:36:58.618Z,9.23
2022-11-27T08:39:27.408Z,9.24
2022-11-27T08:41:55.390Z,9.22
2022-11-27T08:44:23.087Z,9.22
2022-11-27T08:46:50.733Z,9.21
2022-11-27T08:49:18.446Z,9.20
2022-11-27T08:51:46.127Z,9.19
2022-11-27T08:54:15.163Z,9.20
2022-11-27T08:56:43.030Z,9.19
2022-11-27T08:59:10.748Z,9.19
2022-11-27T09:01:38.527Z,9.20
2022-11-27T09:04:06.590Z,9.19
2022-11-27T09:06:34.827Z,9.17
2022-11-27T09:09:04.845Z,9.18
2022-11-27T09:11:35.323Z,9.19
2022-11-27T09:14:04.510Z,9.13
2022-11-27T09:16:32.402Z,9.07
2022-11-27T09:19:00.364Z,9.14
2022-11-27T09:21:31.380Z,9.15
2022-11-27T09:24:00.329Z,9.12
2022-11-27T09:26:29.477Z,9.13
2022-11-27T09:28:59.948Z,9.13
2022-11-27T09:31:27.797Z,9.11
2022-11-27T09:33:55.573Z,9.18
2022-11-27T09:36:25.027Z,9.33
2022-11-27T09:38:53.301Z,9.47
2022-11-27T09:41:39.997Z,9.66
2022-11-27T09:44:24.491Z,9.81
2022-11-27T09:46:54.335Z,9.96
2022-11-27T09:49:28.415Z,10.11
2022-11-27T09:52:02.684Z,10.22
2022-11-27T09:54:37.136Z,10.38
2022-11-27T09:57:06.758Z,10.52
2022-11-27T09:59:42.351Z,10.57
2022-11-27T10:02:18.515Z,10.51
2022-11-27T10:05:12.137Z,10.42
2022-11-27T10:07:44.121Z,10.24
2022-11-27T10:10:27.795Z,10.10
2022-11-27T10:13:06.049Z,9.98
2022-11-27T10:15:43.246Z,9.92
2022-11-27T10:18:17.347Z,9.86
2022-11-27T10:20:49.827Z,9.79
2022-11-27T10:23:25.497Z,9.75
2022-11-27T10:26:00.000Z,9.69
2022-11-27T10:28:36.546Z,9.66
2022-11-27T10:31:13.055Z,9.63
2022-11-27T10:33:46.247Z,9.58
2022-11-27T10:36:18.964Z,9.57
2022-11-27T10:38:49.087Z,9.53
2022-11-27T10:44:24.401Z,9.51
2022-11-27T10:46:59.162Z,9.48
2022-11-27T10:49:26.813Z,9.48
2022-11-27T10:51:54.501Z,9.49
2022-11-27T10:54:26.761Z,9.48
2022-11-27T10:57:10.409Z,9.46
2022-11-27T10:59:44.306Z,9.46
2022-11-27T11:02:30.249Z,9.46
2022-11-27T11:05:24.132Z,9.45
2022-11-27T11:07:56.853Z,9.46
2022-11-27T11:10:29.080Z,9.45
2022-11-27T11:13:17.459Z,9.48
2022-11-27T11:15:51.885Z,9.50
2022-11-27T11:18:23.416Z,9.52
2022-11-27T11:20:53.929Z,9.54
2022-11-27T11:23:25.904Z,9.55
2022-11-27T11:25:56.643Z,9.55
2022-11-27T11:28:25.630Z,9.56
2022-11-27T11:30:56.398Z,9.52
2022-11-27T11:33:26.870Z,9.58
2022-11-27T11:35:56.473Z,9.61
2022-11-27T11:38:31.512Z,9.64
2022-11-27T11:41:03.410Z,9.68
2022-11-27T11:43:33.634Z,9.65
2022-11-27T11:46:08.413Z,9.63
2022-11-27T11:48:38.889Z,9.62
2022-11-27T11:51:14.587Z,9.61
2022-11-27T11:53:45.487Z,9.61
2022-11-27T11:56:26.712Z,9.63
2022-11-27T11:58:59.009Z,9.62
2022-11-27T12:01:56.632Z,9.62
2022-11-27T12:04:44.617Z,9.62
2022-11-27T12:07:28.499Z,9.60
2022-11-27T12:10:04.662Z,9.57
2022-11-27T12:12:48.975Z,9.58
2022-11-27T12:15:26.960Z,9.59
2022-11-27T12:18:01.814Z,9.60
2022-11-27T12:20:39.675Z,9.59
2022-11-27T12:23:34.995Z,9.60
2022-11-27T12:26:15.571Z,9.59
2022-11-27T12:29:20.732Z,9.58
2022-11-27T12:32:15.689Z,9.59
2022-11-27T12:34:56.614Z,9.60
2022-11-27T12:37:40.421Z,9.61
2022-11-27T12:40:24.879Z,9.60
2022-11-27T12:43:00.829Z,9.52
2022-11-27T12:45:33.455Z,9.59
2022-11-27T12:48:07.491Z,9.63
2022-11-27T12:50:41.333Z,9.62
2022-11-27T12:53:24.412Z,9.63
2022-11-27T12:56:04.524Z,9.63
2022-11-27T12:58:38.317Z,9.63
2022-11-27T13:01:11.160Z,9.64
2022-11-27T13:03:45.260Z,9.67
2022-11-27T13:06:15.636Z,9.69
2022-11-27T13:08:54.503Z,9.70
2022-11-27T13:11:29.197Z,9.70
2022-11-27T13:14:04.224Z,9.73
2022-11-27T13:16:36.568Z,9.72
2022-11-27T13:19:12.071Z,9.73
2022-11-27T13:21:40.741Z,9.79
2022-11-27T13:24:13.622Z,9.85
2022-11-27T13:26:45.081Z,9.91
2022-11-27T13:29:20.440Z,9.90
2022-11-27T13:31:53.663Z,9.90
2022-11-27T13:34:24.149Z,9.89
2022-11-27T13:36:59.171Z,9.89
2022-11-27T13:39:31.060Z,9.88
2022-11-27T13:42:05.981Z,9.87
2022-11-27T13:44:37.150Z,9.87
2022-11-27T13:47:13.007Z,9.89
2022-11-27T13:49:41.933Z,9.91
2022-11-27T13:52:13.566Z,9.88
2022-11-27T13:54:53.642Z,9.85
2022-11-27T13:57:21.936Z,9.87
2022-11-27T13:59:58.514Z,9.85
2022-11-27T14:02:26.827Z,9.83
2022-11-27T14:04:56.653Z,9.83
2022-11-27T14:07:35.533Z,9.81
2022-11-27T14:10:12.764Z,9.80
2022-11-27T14:12:42.487Z,9.79
2022-11-27T14:15:21.571Z,9.79
2022-11-27T14:17:51.858Z,9.79
2022-11-27T14:20:29.625Z,9.79
2022-11-27T14:23:14.475Z,9.79
2022-11-27T14:25:43.613Z,9.78
2022-11-27T14:28:16.619Z,9.78
2022-11-27T14:30:48.100Z,9.77
2022-11-27T14:33:20.761Z,9.76
2022-11-27T14:35:52.485Z,9.75
2022-11-27T14:38:20.702Z,9.73
2022-11-27T14:40:51.669Z,9.72
2022-11-27T14:43:23.792Z,9.75
2022-11-27T14:45:53.704Z,9.75
2022-11-27T14:48:24.117Z,9.73
2022-11-27T14:50:53.503Z,9.74
2022-11-27T14:53:23.538Z,9.71
2022-11-27T14:55:56.466Z,9.74
2022-11-27T14:58:27.737Z,9.75
2022-11-27T15:00:59.035Z,9.76
2022-11-27T15:03:27.776Z,9.77
2022-11-27T15:05:59.038Z,9.85
2022-11-27T15:08:27.821Z,10.02
2022-11-27T15:14:37.996Z,10.39
2022-11-27T15:17:06.204Z,10.49
2022-11-27T15:19:38.187Z,10.55
2022-11-27T15:22:06.304Z,10.51
2022-11-27T15:24:36.078Z,10.48
2022-11-27T15:27:19.134Z,10.41
2022-11-27T15:30:02.842Z,10.35
2022-11-27T15:32:46.913Z,10.30
2022-11-27T15:35:16.065Z,10.24
2022-11-27T15:37:44.037Z,10.23
2022-11-27T15:40:33.390Z,10.21
2022-11-27T15:43:01.246Z,10.18
2022-11-27T15:45:32.742Z,10.13
2022-11-27T15:48:02.329Z,10.09
2022-11-27T15:50:32.767Z,10.06
2022-11-27T15:53:01.415Z,10.04
2022-11-27T15:55:29.375Z,10.00
2022-11-27T15:57:57.046Z,9.97
2022-11-27T16:00:25.989Z,9.95
2022-11-27T16:02:55.818Z,9.94
2022-11-27T16:05:23.553Z,9.91
2022-11-27T16:07:54.940Z,9.92
2022-11-27T16:10:25.652Z,9.92
2022-11-27T16:12:55.234Z,9.93
2022-11-27T16:15:25.756Z,9.92
2022-11-27T16:17:57.835Z,9.93
2022-11-27T16:20:26.055Z,9.88
2022-11-27T16:22:54.009Z,9.90
2022-11-27T16:25:21.836Z,9.90
2022-11-27T16:27:49.582Z,9.89
2022-11-27T16:30:20.019Z,9.91
2022-11-27T16:32:47.725Z,9.91
2022-11-27T16:35:17.377Z,9.89
2022-11-27T16:37:45.013Z,9.89
2022-11-27T16:40:14.113Z,9.88
2022-11-27T16:42:41.815Z,9.86
2022-11-27T16:45:10.353Z,9.86
2022-11-27T16:47:37.994Z,9.85
2022-11-27T16:50:06.940Z,9.85
2022-11-27T16:52:35.995Z,9.86
2022-11-27T16:55:03.681Z,9.90
2022-11-27T16:57:31.353Z,9.94
2022-11-27T16:59:59.054Z,9.96
2022-11-27T17:02:28.770Z,9.96
2022-11-27T17:04:56.594Z,9.96
2022-11-27T17:07:24.301Z,9.97
2022-11-27T17:09:53.382Z,9.97
2022-11-27T17:12:21.024Z,9.99
2022-11-27T17:14:48.754Z,10.01
2022-11-27T17:17:16.736Z,10.00
2022-11-27T17:19:44.384Z,9.99
2022-11-27T17:22:12.224Z,9.99
2022-11-27T17:24:39.897Z,9.99
2022-11-27T17:27:08.921Z,9.98
2022-11-27T17:29:36.560Z,9.98
2022-11-27T17:32:04.633Z,9.95
2022-11-27T17:34:32.404Z,9.96
2022-11-27T17:37:00.140Z,9.94
2022-11-27T17:39:27.851Z,9.95
2022-11-27T17:41:55.539Z,9.94
2022-11-27T17:44:24.631Z,9.93
2022-11-27T17:46:52.293Z,10.01
2022-11-27T17:49:22.043Z,10.23
2022-11-27T17:51:49.904Z,10.39
2022-11-27T17:54:17.648Z,10.43
2022-11-27T17:56:51.035Z,10.51
2022-11-27T17:59:18.802Z,10.63
2022-11-27T18:01:48.435Z,10.67
2022-11-27T18:04:16.163Z,10.57
2022-11-27T18:06:43.845Z,10.65
2022-11-27T18:09:12.433Z,10.65
2022-11-27T18:11:40.646Z,10.60
2022-11-27T18:14:08.465Z,10.53
2022-11-27T18:16:38.409Z,10.47
2022-11-27T18:19:09.290Z,10.42
2022-11-27T18:21:38.164Z,10.40
2022-11-27T18:24:24.433Z,10.38
2022-11-27T18:29:44.624Z,10.28
2022-11-27T18:32:14.005Z,10.25
2022-11-27T18:34:43.354Z,10.21
2022-11-27T18:37:12.076Z,10.20
2022-11-27T18:39:40.586Z,10.20
2022-11-27T18:42:08.802Z,10.17
2022-11-27T18:44:44.382Z,10.15
2022-11-27T18:47:13.935Z,10.26
2022-11-27T18:49:43.885Z,10.40
2022-11-27T18:52:12.163Z,10.55
2022-11-27T18:54:40.015Z,10.68
2022-11-27T18:57:07.787Z,10.84
2022-11-27T18:59:35.705Z,10.88
2022-11-27T19:02:04.657Z,10.85
2022-11-27T19:04:32.501Z,10.81
2022-11-27T19:07:01.526Z,10.71
2022-11-27T19:09:29.220Z,10.60
2022-11-27T19:11:56.926Z,10.54
2022-11-27T19:14:24.665Z,10.47
2022-11-27T19:16:52.915Z,10.41
2022-11-27T19:22:11.779Z,10.31
2022-11-27T19:24:39.491Z,10.27
2022-11-27T19:27:07.184Z,10.24
2022-11-27T19:29:34.845Z,10.20
2022-11-27T19:32:02.906Z,10.18
2022-11-27T19:34:30.801Z,10.16
2022-11-27T19:36:59.011Z,10.15
2022-11-27T19:39:28.825Z,10.13
2022-11-27T19:41:57.839Z,10.11
2022-11-27T19:44:25.785Z,10.11
2022-11-27T19:46:53.578Z,10.10
2022-11-27T19:49:21.468Z,10.08
2022-11-27T19:51:49.790Z,10.06
2022-11-27T19:54:19.267Z,10.05
2022-11-27T19:56:48.330Z,10.05
2022-11-27T19:59:16.073Z,10.03
2022-11-27T20:01:43.824Z,10.04
2022-11-27T20:04:12.178Z,10.02
2022-11-27T20:06:41.049Z,10.01
2022-11-27T20:09:08.779Z,9.99
2022-11-27T20:11:36.634Z,9.99
2022-11-27T20:14:06.648Z,10.00
2022-11-27T20:16:35.665Z,10.01
2022-11-27T20:19:06.067Z,10.00
2022-11-27T20:21:33.979Z,10.00
2022-11-27T20:24:02.877Z,9.99
2022-11-27T20:26:30.951Z,9.99
2022-11-27T20:28:59.156Z,9.98
2022-11-27T20:31:31.048Z,9.97
2022-11-27T20:34:01.592Z,9.96
2022-11-27T20:36:30.193Z,9.95
2022-11-27T20:39:00.180Z,9.95
2022-11-27T20:41:28.492Z,9.93
2022-11-27T20:43:58.570Z,9.94
2022-11-27T20:46:28.341Z,9.92
2022-11-27T20:48:57.055Z,9.92
2022-11-27T20:51:30.116Z,9.92
2022-11-27T20:53:58.988Z,9.91
2022-11-27T20:56:27.028Z,9.90
2022-11-27T20:58:56.038Z,9.91
2022-11-27T21:01:26.433Z,9.91
2022-11-27T21:03:56.665Z,9.90
2022-11-27T21:06:26.475Z,9.88
2022-11-27T21:08:54.505Z,9.87
2022-11-27T21:11:25.200Z,9.87
2022-11-27T21:13:55.851Z,9.86
2022-11-27T21:16:25.018Z,9.88
2022-11-27T21:18:53.402Z,9.91
2022-11-27T21:21:22.455Z,9.95
2022-11-27T21:23:50.411Z,10.00
2022-11-27T21:26:18.944Z,10.02
2022-11-27T21:28:46.814Z,10.02
2022-11-27T21:31:17.321Z,10.00
2022-11-27T21:33:48.021Z,10.01
2022-11-27T21:36:16.361Z,10.00
2022-11-27T21:38:45.817Z,9.98
2022-11-27T21:41:14.042Z,9.98
2022-11-27T21:43:42.129Z,9.98
2022-11-27T21:46:12.690Z,9.98
2022-11-27T21:48:40.721Z,9.98
2022-11-27T21:51:12.545Z,10.03
2022-11-27T21:53:41.073Z,10.08
2022-11-27T21:56:12.949Z,10.10
2022-11-27T21:58:41.126Z,10.09
2022-11-27T22:01:12.533Z,10.06
2022-11-27T22:03:42.765Z,10.10
2022-11-27T22:06:12.800Z,10.11
2022-11-27T22:08:41.994Z,10.07
2022-11-27T22:11:13.229Z,10.08
2022-11-27T22:13:42.137Z,10.06
2022-11-27T22:16:11.581Z,10.05
2022-11-27T22:18:39.474Z,10.04
2022-11-27T22:21:08.895Z,10.03
2022-11-27T22:23:37.061Z,10.03
2022-11-27T22:26:06.252Z,10.02
2022-11-27T22:28:35.811Z,10.01
2022-11-27T22:31:08.857Z,9.99
2022-11-27T22:33:37.098Z,9.99
2022-11-27T22:36:16.047Z,9.99
2022-11-27T22:38:44.048Z,9.99
2022-11-27T22:41:12.743Z,9.98
2022-11-27T22:43:43.015Z,9.98
2022-11-27T22:46:12.937Z,9.96
2022-11-27T22:48:40.830Z,9.94
2022-11-27T22:51:08.488Z,9.94
2022-11-27T22:53:37.374Z,9.93
2022-11-27T22:56:06.696Z,9.93
2022-11-27T22:58:39.854Z,9.92
2022-11-27T23:01:14.729Z,9.93
2022-11-27T23:03:42.434Z,9.92
2022-11-27T23:06:12.777Z,9.90
2022-11-27T23:08:41.368Z,9.89
2022-11-27T23:11:09.597Z,9.91
2022-11-27T23:13:37.873Z,9.88
2022-11-27T23:16:07.454Z,9.86
2022-11-27T23:18:38.416Z,9.89
2022-11-27T23:21:07.488Z,9.89
2022-11-27T23:23:35.257Z,9.89
2022-11-27T23:26:07.119Z,9.88
2022-11-27T23:28:36.522Z,9.90
2022-11-27T23:31:28.169Z,9.89
2022-11-27T23:33:55.623Z,9.87
2022-11-27T23:36:23.414Z,9.87
2022-11-27T23:38:51.211Z,9.86
2022-11-27T23:41:20.676Z,9.87
2022-11-27T23:43:49.242Z,9.84
2022-11-27T23:46:21.430Z,9.86
2022-11-27T23:48:49.697Z,9.86
2022-11-27T23:51:24.543Z,9.86
2022-11-27T23:53:53.161Z,9.87
2022-11-27T23:56:23.190Z,9.86
2022-11-27T23:58:51.081Z,9.85
